Time;durP1;ratioP1;P1;durP2;ratioP2;P2;SDS_P1;SDS_P2;PMS_P1;PMS_P2;Temp;Humidity;BMP_temperature;BMP_pressure;BME280_temperature;BME280_humidity;BME280_pressure;Samples;Min_cycle;Max_cycle;Signal;HPM_P1;HPM_P2
2022/10/13 00:00:33;;;;;;;33.88;14.20;;;;;;;;;;5009436;28;20077;-81
2022/10/13 00:03:00;;;;;;;26.58;12.52;;;;;;;;;;5012392;28;20030;-81
2022/10/13 00:05:29;;;;;;;32.30;13.77;;;;;;;;;;5011529;28;20034;-82
2022/10/13 00:07:55;;;;;;;36.90;14.05;;;;;;;;;;5013147;28;20023;-82
2022/10/13 00:10:23;;;;;;;32.53;12.95;;;;;;;;;;5026021;28;20323;-82
2022/10/13 00:12:54;;;;;;;33.22;14.75;;;;;;;;;;5033082;28;20022;-82
2022/10/13 00:15:20;;;;;;;33.63;14.55;;;;;;;;;;5016095;28;20047;-81
2022/10/13 00:17:47;;;;;;;38.80;15.13;;;;;;;;;;5034552;28;20019;-82
2022/10/13 00:20:13;;;;;;;38.28;15.57;;;;;;;;;;5017514;28;20054;-81
2022/10/13 00:22:40;;;;;;;40.10;18.67;;;;;;;;;;5016893;28;20046;-81
2022/10/13 00:25:07;;;;;;;29.48;14.40;;;;;;;;;;5033207;28;20038;-81
2022/10/13 00:27:33;;;;;;;29.52;14.05;;;;;;;;;;5019150;28;20034;-81
2022/10/13 00:37:45;;;;;;;27.73;13.52;;;;;;;;;;4032162;23;20041;-84
2022/10/13 00:40:11;;;;;;;30.05;13.35;;;;;;;;;;5048338;28;20046;-83
2022/10/13 00:42:40;;;;;;;28.67;14.52;;;;;;;;;;5055940;28;20037;-81
2022/10/13 00:45:13;;;;;;;30.35;13.48;;;;;;;;;;5057009;28;20033;-82
2022/10/13 00:47:42;;;;;;;26.73;13.70;;;;;;;;;;5056976;28;20096;-80
2022/10/13 00:50:13;;;;;;;24.90;13.15;;;;;;;;;;5060242;28;20056;-82
2022/10/13 00:52:41;;;;;;;29.13;13.88;;;;;;;;;;5057727;28;20037;-83
2022/10/13 00:55:08;;;;;;;29.27;12.50;;;;;;;;;;5065282;28;20014;-81
2022/10/13 00:57:34;;;;;;;23.60;13.10;;;;;;;;;;5049911;28;20037;-80
2022/10/13 01:00:00;;;;;;;24.92;12.52;;;;;;;;;;5050703;28;20033;-82
2022/10/13 01:02:31;;;;;;;24.63;12.68;;;;;;;;;;5067408;28;20040;-80
2022/10/13 01:04:58;;;;;;;23.58;12.43;;;;;;;;;;5053555;28;20040;-79
2022/10/13 01:07:24;;;;;;;28.65;12.98;;;;;;;;;;5046680;28;20030;-78
2022/10/13 01:09:50;;;;;;;25.80;12.25;;;;;;;;;;5051203;28;20109;-82
2022/10/13 01:12:26;;;;;;;24.00;12.82;;;;;;;;;;5049363;28;20021;-81
2022/10/13 01:14:55;;;;;;;26.38;13.35;;;;;;;;;;5051035;28;20025;-79
2022/10/13 01:17:32;;;;;;;27.80;13.32;;;;;;;;;;5053226;28;20539;-80
2022/10/13 01:20:02;;;;;;;24.88;12.05;;;;;;;;;;5051619;28;20025;-80
2022/10/13 01:22:32;;;;;;;24.80;12.77;;;;;;;;;;5053530;28;20068;-81
2022/10/13 01:25:04;;;;;;;24.05;12.30;;;;;;;;;;5051158;28;20037;-79
2022/10/13 01:27:30;;;;;;;25.45;12.93;;;;;;;;;;5045242;28;20034;-80
2022/10/13 01:29:59;;;;;;;22.63;11.07;;;;;;;;;;5046059;28;20044;-80
2022/10/13 01:32:47;;;;;;;22.42;11.60;;;;;;;;;;5039842;28;20029;-80
2022/10/13 01:35:23;;;;;;;25.73;12.07;;;;;;;;;;5061180;28;20029;-79
2022/10/13 01:38:01;;;;;;;21.90;10.93;;;;;;;;;;5038553;28;20037;-80
2022/10/13 01:40:29;;;;;;;21.10;10.77;;;;;;;;;;5047874;28;20028;-80
2022/10/13 01:42:58;;;;;;;20.98;11.52;;;;;;;;;;5051602;28;20020;-80
2022/10/13 01:45:31;;;;;;;17.52;11.00;;;;;;;;;;5050076;28;20029;-81
2022/10/13 01:47:59;;;;;;;19.90;11.18;;;;;;;;;;5049024;28;20022;-80
2022/10/13 01:50:26;;;;;;;19.60;11.38;;;;;;;;;;5050610;28;20034;-81
2022/10/13 01:52:52;;;;;;;22.92;11.60;;;;;;;;;;5057916;28;20097;-82
2022/10/13 01:55:18;;;;;;;23.77;11.75;;;;;;;;;;5034141;28;20059;-81
2022/10/13 01:57:48;;;;;;;22.10;11.98;;;;;;;;;;5055422;28;20025;-80
2022/10/13 02:00:16;;;;;;;21.33;12.40;;;;;;;;;;5056949;28;20043;-80
2022/10/13 02:02:48;;;;;;;27.98;11.85;;;;;;;;;;5059887;28;20029;-79
2022/10/13 02:05:24;;;;;;;21.92;12.30;;;;;;;;;;5039824;28;20033;-80
2022/10/13 02:07:53;;;;;;;24.55;12.18;;;;;;;;;;5030446;28;20029;-80
2022/10/13 02:10:31;;;;;;;20.85;11.00;;;;;;;;;;5040707;28;20034;-79
2022/10/13 02:13:02;;;;;;;21.10;11.80;;;;;;;;;;5051467;28;20104;-79
2022/10/13 02:15:43;;;;;;;24.35;12.35;;;;;;;;;;5035100;28;20474;-80
2022/10/13 02:18:11;;;;;;;20.15;11.55;;;;;;;;;;5045073;28;20080;-80
2022/10/13 02:20:39;;;;;;;20.42;11.85;;;;;;;;;;5039923;28;20025;-80
2022/10/13 02:23:08;;;;;;;25.98;13.25;;;;;;;;;;5037593;28;20043;-80
2022/10/13 02:25:35;;;;;;;21.52;12.02;;;;;;;;;;5031775;28;20030;-80
2022/10/13 02:28:01;;;;;;;27.40;13.70;;;;;;;;;;5033985;28;20044;-80
2022/10/13 02:30:29;;;;;;;24.88;12.57;;;9.00;99.90;;;;;;5036287;28;20029;-80
2022/10/13 02:32:56;;;;;;;23.92;12.85;;;;;;;;;;5022553;28;20036;-80
2022/10/13 02:35:22;;;;;;;27.15;13.25;;;;;;;;;;5039881;28;20665;-80
2022/10/13 02:37:48;;;;;;;22.05;12.57;;;;;;;;;;5035741;28;20422;-78
2022/10/13 02:40:14;;;;;;;27.98;12.85;;;;;;;;;;5035289;28;20048;-80
2022/10/13 02:42:40;;;;;;;25.25;12.48;;;;;;;;;;5035586;28;20387;-79
2022/10/13 02:45:07;;;;;;;26.13;12.75;;;;;;;;;;5038700;28;20069;-79
2022/10/13 02:47:33;;;;;;;24.75;12.55;;;;;;;;;;5043213;28;20117;-81
2022/10/13 02:49:59;;;;;;;28.48;12.35;;;;;;;;;;5042041;28;20042;-79
2022/10/13 02:52:25;;;;;;;22.27;11.80;;;;;;;;;;5041987;28;20025;-80
2022/10/13 02:54:52;;;;;;;22.80;12.40;;;;;;;;;;5035299;28;20148;-79
2022/10/13 02:57:18;;;;;;;20.77;11.82;;;;;;;;;;5045727;28;20037;-79
2022/10/13 02:59:44;;;;;;;20.92;11.30;;;;;;;;;;5046285;28;20064;-80
2022/10/13 03:02:19;;;;;;;21.52;10.85;;;;;;;;;;5041389;28;20692;-80
2022/10/13 03:04:46;;;;;;;20.83;11.43;;;;;;;;;;5042617;28;20034;-80
2022/10/13 03:07:12;;;;;;;23.02;11.93;;;;;;;;;;5044949;28;20031;-79
2022/10/13 03:09:39;;;;;;;20.70;12.38;;;;;;;;;;5045160;28;20116;-81
2022/10/13 03:12:05;;;;;;;19.10;11.07;;;;;;;;;;5038844;28;20022;-82
2022/10/13 03:14:31;;;;;;;23.48;10.90;;;;;;;;;;5052631;28;20066;-82
2022/10/13 03:16:57;;;;;;;22.45;11.32;;;;;;;;;;5047808;28;20030;-79
2022/10/13 03:19:23;;;;;;;22.98;11.32;;;;;;;;;;5046113;28;20047;-81
2022/10/13 03:21:49;;;;;;;20.60;12.10;;;;;;;;;;5038306;28;20044;-80
2022/10/13 03:24:21;;;;;;;21.83;11.65;;;;;;;;;;5036656;28;20079;-81
2022/10/13 03:26:48;;;;;;;19.20;10.88;;;;;;;;;;5039166;28;20093;-81
2022/10/13 03:29:15;;;;;;;20.92;11.55;;;;;;;;;;5046713;28;20372;-80
2022/10/13 03:31:42;;;;;;;23.08;11.30;;;;;;;;;;5050010;28;20112;-81
2022/10/13 03:34:08;;;;;;;20.33;11.45;;;;;;;;;;5050353;28;20026;-80
2022/10/13 03:36:35;;;;;;;25.48;12.18;;;;;;;;;;5051608;28;20037;-80
2022/10/13 03:39:01;;;;;;;22.80;12.38;;;;;;;;;;5054625;28;20097;-81
2022/10/13 03:41:27;;;;;;;20.02;10.85;;;;;;;;;;5046924;28;20033;-80
2022/10/13 03:43:54;;;;;;;21.73;11.20;;;;;;;;;;5047259;28;20445;-81
2022/10/13 03:46:20;;;;;;;22.40;10.40;;;;;;;;;;5055676;28;20032;-80
2022/10/13 03:48:47;;;;;;;21.73;10.60;;;;;;;;;;5050870;28;20033;-80
2022/10/13 03:51:14;;;;;;;18.05;10.70;;;;;;;;;;5048832;28;20551;-80
2022/10/13 03:53:40;;;;;;;20.35;11.38;;;;;;;;;;5050698;28;20029;-80
2022/10/13 03:56:08;;;;;;;21.67;10.95;;;;;;;;;;5050942;28;20022;-81
2022/10/13 03:58:34;;;;;;;16.88;10.48;;;;;;;;;;5042635;28;20506;-79
2022/10/13 04:01:04;;;;;;;21.25;10.98;;;;;;;;;;5058082;28;20492;-79
2022/10/13 04:03:31;;;;;;;19.83;10.63;;;;;;;;;;5061917;28;20036;-79
2022/10/13 04:06:01;;;;;;;20.02;11.52;;;;;;;;;;5048364;28;20045;-80
2022/10/13 04:08:28;;;;;;;19.08;10.80;;;;;;;;;;5040874;28;20045;-79
2022/10/13 04:11:00;;;;;;;21.02;11.60;;;;;;;;;;5042774;28;20073;-78
2022/10/13 04:13:26;;;;;;;21.00;11.25;;;;;;;;;;5047835;28;20032;-81
2022/10/13 04:15:52;;;;;;;21.80;11.15;;;;;;;;;;5037996;28;20052;-80
2022/10/13 04:18:18;;;;;;;21.67;11.45;;;;;;;;;;5048830;28;20047;-79
2022/10/13 04:20:45;;;;;;;20.55;10.80;;;;;;;;;;5047615;28;20071;-79
2022/10/13 04:23:11;;;;;;;18.48;10.40;;;;;;;;;;5049886;28;20026;-80
2022/10/13 04:25:38;;;;;;;21.17;11.05;;;;;;;;;;5048462;28;20079;-78
2022/10/13 04:28:05;;;;;;;19.92;11.80;;;;;;;;;;5044505;28;20059;-80
2022/10/13 04:30:32;;;;;;;21.08;11.02;;;;;;;;;;5040994;28;20036;-79
2022/10/13 04:32:58;;;;;;;20.42;11.65;;;;;;;;;;5039472;28;20045;-80
2022/10/13 04:35:24;;;;;;;20.40;11.18;;;;;;;;;;5031949;28;20486;-80
2022/10/13 04:37:51;;;;;;;18.92;10.82;;;;;;;;;;5054343;28;20029;-80
2022/10/13 04:40:17;;;;;;;22.02;11.38;;;;;;;;;;5040347;28;20033;-80
2022/10/13 04:42:43;;;;;;;19.83;10.75;;;;;;;;;;5043974;28;20086;-81
2022/10/13 04:45:09;;;;;;;20.30;10.18;;;;;;;;;;5045818;28;20529;-79
2022/10/13 04:47:36;;;;;;;21.17;10.23;;;;;;;;;;5037441;28;20406;-80
2022/10/13 04:50:03;;;;;;;18.67;10.65;;;;;;;;;;5038972;28;20021;-79
2022/10/13 04:52:31;;;;;;;18.42;11.20;;;;;;;;;;5043408;28;20025;-80
2022/10/13 04:54:57;;;;;;;19.42;11.30;;;;;;;;;;5036487;28;20032;-80
2022/10/13 04:57:23;;;;;;;16.70;9.63;;;9.30;99.90;;;;;;5044651;28;20037;-80
2022/10/13 04:59:49;;;;;;;18.13;9.88;;;;;;;;;;5026793;28;20046;-80
2022/10/13 05:02:15;;;;;;;17.58;9.98;;;;;;;;;;5032614;28;20065;-80
2022/10/13 05:04:41;;;;;;;17.05;9.52;;;;;;;;;;5044311;28;20087;-79
2022/10/13 05:07:07;;;;;;;19.92;9.40;;;;;;;;;;5099517;22;20080;-89
2022/10/13 05:09:33;;;;;;;21.00;9.65;;;;;;;;;;5044732;28;20053;-88
2022/10/13 05:11:59;;;;;;;19.85;10.45;;;9.50;99.90;;;;;;5028392;28;20026;-88
2022/10/13 05:14:25;;;;;;;19.90;9.48;;;;;;;;;;5028673;28;20033;-85
2022/10/13 05:16:51;;;;;;;18.80;9.52;;;;;;;;;;5013944;28;20030;-85
2022/10/13 05:19:20;;;;;;;14.32;8.60;;;;;;;;;;5029907;28;20033;-85
2022/10/13 05:21:46;;;;;;;17.92;9.52;;;;;;;;;;5028580;28;20029;-90
2022/10/13 05:24:12;;;;;;;18.13;9.45;;;9.50;99.90;;;;;;5034123;28;20036;-86
2022/10/13 05:26:38;;;;;;;27.55;13.43;;;;;;;;;;5010287;28;20038;-85
2022/10/13 05:29:04;;;;;;;15.13;9.32;;;;;;;;;;5033004;28;20037;-86
2022/10/13 05:31:31;;;;;;;15.27;8.52;;;9.60;99.90;;;;;;5029867;28;20030;-85
2022/10/13 05:33:57;;;;;;;16.20;9.00;;;12.40;99.90;;;;;;5055220;28;20025;-88
2022/10/13 05:36:41;;;;;;;16.73;9.30;;;9.60;99.90;;;;;;5040016;28;20024;-87
2022/10/13 05:39:07;;;;;;;14.30;8.25;;;9.60;99.90;;;;;;5028665;28;20061;-86
2022/10/13 05:41:33;;;;;;;16.45;8.90;;;;;;;;;;5036972;28;20049;-87
2022/10/13 05:44:05;;;;;;;15.20;8.82;;;9.70;99.90;;;;;;5031769;28;20031;-88
2022/10/13 05:46:31;;;;;;;17.85;9.48;;;9.60;99.90;;;;;;5049326;28;20049;-89
2022/10/13 05:48:57;;;;;;;15.02;9.65;;;9.60;99.90;;;;;;5029032;28;20072;-89
2022/10/13 05:51:37;;;;;;;15.05;8.75;;;9.60;99.90;;;;;;5026459;28;20026;-88
2022/10/13 05:54:08;;;;;;;16.08;9.65;;;9.60;99.90;;;;;;5028560;28;20030;-89
2022/10/13 05:56:39;;;;;;;17.10;10.05;;;9.70;99.90;;;;;;5046086;28;20029;-89
2022/10/13 05:59:08;;;;;;;16.98;9.15;;;9.70;99.90;;;;;;5032468;28;20033;-88
2022/10/13 06:01:38;;;;;;;17.13;9.30;;;9.70;99.90;;;;;;5029300;28;20026;-88
2022/10/13 06:04:10;;;;;;;15.20;8.95;;;11.70;99.90;;;;;;5033544;28;20151;-90
2022/10/13 06:06:36;;;;;;;16.83;8.48;;;9.70;99.90;;;;;;5032415;28;20037;-88
2022/10/13 06:09:01;;;;;;;17.42;9.93;;;12.40;99.90;;;;;;5030172;28;20033;-87
2022/10/13 06:11:27;;;;;;;18.67;10.23;;;;;;;;;;5047401;28;20029;-84
2022/10/13 06:13:53;;;;;;;19.92;11.07;;;;;;;;;;5057453;28;20013;-85
2022/10/13 06:16:19;;;;;;;22.15;11.43;;;;;;;;;;5043228;28;20013;-87
2022/10/13 06:18:45;;;;;;;24.35;11.50;;;9.70;99.90;;;;;;5048044;28;20093;-83
2022/10/13 06:21:12;;;;;;;19.33;11.10;;;9.60;99.90;;;;;;5041923;28;20030;-86
2022/10/13 06:23:38;;;;;;;25.08;11.82;;;;;;;;;;5037267;28;20037;-88
2022/10/13 06:26:07;;;;;;;22.42;10.93;;;9.80;99.90;;;;;;5042953;28;20082;-87
2022/10/13 06:28:33;;;;;;;20.45;11.68;;;;;;;;;;5037090;28;20025;-85
2022/10/13 06:30:59;;;;;;;22.75;11.75;;;;;;;;;;5030808;28;20041;-86
2022/10/13 06:33:25;;;;;;;23.10;11.68;;;;;;;;;;5047211;28;20029;-88
2022/10/13 06:35:54;;;;;;;25.50;12.10;;;;;;;;;;5042761;28;20044;-87
2022/10/13 06:38:19;;;;;;;22.25;12.60;;;9.70;99.90;;;;;;5057417;28;20013;-87
2022/10/13 06:40:45;;;;;;;24.65;11.50;;;;;;;;;;5049131;28;20057;-85
2022/10/13 06:43:13;;;;;;;22.35;12.43;;;;;;;;;;5044793;28;20535;-83
2022/10/13 06:45:39;;;;;;;28.85;13.80;;;;;;;;;;5040172;28;20021;-86
2022/10/13 06:48:05;;;;;;;29.30;12.88;;;;;;;;;;5031048;28;20016;-83
2022/10/13 06:50:38;;;;;;;23.90;12.70;;;9.70;99.90;;;;;;5038542;28;20102;-84
2022/10/13 06:53:05;;;;;;;20.98;11.88;;;;;;;;;;5038620;28;20029;-84
2022/10/13 06:55:31;;;;;;;22.42;12.00;;;;;;;;;;5037700;28;20057;-88
2022/10/13 06:57:57;;;;;;;23.15;11.63;;;9.70;99.90;;;;;;5036580;28;20022;-86
2022/10/13 07:00:23;;;;;;;25.33;11.90;;;;;;;;;;5046399;28;20405;-88
2022/10/13 07:02:55;;;;;;;25.05;11.10;;;9.80;99.90;;;;;;5031031;28;20029;-85
2022/10/13 07:05:20;;;;;;;20.98;10.70;;;9.70;99.90;;;;;;5038842;28;20040;-84
2022/10/13 07:07:46;;;;;;;20.70;11.63;;;;;;;;;;5035499;28;20033;-86
2022/10/13 07:10:12;;;;;;;22.85;11.25;;;9.80;99.90;;;;;;5035765;28;20037;-82
2022/10/13 07:12:38;;;;;;;24.88;12.45;;;;;;;;;;5032603;28;20045;-82
2022/10/13 07:15:04;;;;;;;23.42;12.50;;;9.90;99.90;;;;;;5033624;28;20412;-88
2022/10/13 07:17:30;;;;;;;24.73;13.02;;;;;;;;;;5025849;28;20021;-85
2022/10/13 07:19:58;;;;;;;21.58;12.52;;;;;;;;;;5037426;28;20044;-89
2022/10/13 07:22:24;;;;;;;22.15;12.90;;;;;;;;;;5039173;28;20033;-86
2022/10/13 07:24:50;;;;;;;26.63;13.55;;;;;;;;;;5039052;28;20014;-88
2022/10/13 07:27:16;;;;;;;25.77;12.90;;;;;;;;;;5041801;28;20304;-88
2022/10/13 07:29:41;;;;;;;23.10;12.60;;;10.30;99.90;;;;;;5042685;28;20037;-89
2022/10/13 07:32:07;;;;;;;23.70;13.70;;;10.40;99.90;;;;;;5041236;28;20034;-86
2022/10/13 07:34:36;;;;;;;23.55;13.57;;;10.40;99.90;;;;;;5040540;28;20623;-86
2022/10/13 07:37:02;;;;;;;28.15;13.82;;;;;;;;;;5042514;28;20021;-88
2022/10/13 07:39:28;;;;;;;24.88;13.95;;;;;;;;;;5039434;28;20033;-89
2022/10/13 07:41:54;;;;;;;25.10;14.20;;;;;;;;;;5042414;28;20140;-85
2022/10/13 07:44:20;;;;;;;25.48;13.55;;;;;;;;;;5043887;28;20503;-86
2022/10/13 07:46:46;;;;;;;24.73;13.52;;;;;;;;;;5040031;28;20466;-88
2022/10/13 07:49:11;;;;;;;24.77;13.43;;;10.60;99.90;;;;;;5049114;28;20048;-87
2022/10/13 07:51:37;;;;;;;24.80;13.63;;;;;;;;;;5047472;28;20045;-86
2022/10/13 07:54:03;;;;;;;30.30;14.73;;;10.70;99.90;;;;;;5041609;28;20026;-87
2022/10/13 07:56:29;;;;;;;24.45;13.65;;;;;;;;;;5046039;28;20025;-86
2022/10/13 07:58:55;;;;;;;22.70;12.65;;;;;;;;;;5046938;28;20022;-85
2022/10/13 08:01:21;;;;;;;25.33;13.20;;;11.00;99.90;;;;;;5047182;28;20037;-87
2022/10/13 08:03:46;;;;;;;21.58;11.88;;;11.00;99.90;;;;;;5044621;28;20044;-85
2022/10/13 08:06:13;;;;;;;21.33;12.63;;;;;;;;;;5048109;28;20571;-86
2022/10/13 08:08:39;;;;;;;22.63;11.70;;;;;;;;;;5043032;28;20029;-84
2022/10/13 08:11:12;;;;;;;20.95;12.23;;;11.30;99.90;;;;;;5043109;28;20033;-87
2022/10/13 08:13:38;;;;;;;23.67;12.48;;;;;;;;;;5040129;28;20033;-87
2022/10/13 08:16:04;;;;;;;19.63;11.30;;;11.40;99.90;;;;;;5043269;28;20029;-85
2022/10/13 08:18:30;;;;;;;22.75;12.43;;;11.30;99.90;;;;;;5041666;28;20052;-87
2022/10/13 08:20:59;;;;;;;21.98;11.20;;;11.30;99.90;;;;;;5041584;28;20026;-84
2022/10/13 08:23:25;;;;;;;21.65;11.82;;;9.50;99.90;;;;;;5035554;28;20030;-87
2022/10/13 08:25:51;;;;;;;19.83;10.77;;;;;;;;;;5040458;28;20036;-86
2022/10/13 08:28:25;;;;;;;18.33;10.85;;;11.60;99.90;;;;;;5035304;28;20105;-87
2022/10/13 08:30:52;;;;;;;18.50;10.77;;;;;;;;;;5038648;28;20111;-82
2022/10/13 08:33:19;;;;;;;21.70;11.60;;;11.60;99.90;;;;;;5033142;28;20069;-86
2022/10/13 08:35:45;;;;;;;17.98;10.70;;;11.70;99.90;;;;;;5044135;28;20040;-85
2022/10/13 08:38:11;;;;;;;18.27;11.73;;;;;;;;;;5038670;28;20029;-87
2022/10/13 08:40:38;;;;;;;20.13;10.63;;;11.70;99.90;;;;;;5038669;28;20495;-84
2022/10/13 08:43:11;;;;;;;16.90;10.80;;;12.10;99.90;;;;;;5039392;28;20030;-87
2022/10/13 08:45:37;;;;;;;20.63;10.85;;;;;;;;;;5042486;28;20032;-88
2022/10/13 08:48:08;;;;;;;18.40;11.23;;;12.00;99.90;;;;;;5035764;28;20478;-84
2022/10/13 08:50:37;;;;;;;19.90;10.32;;;12.00;99.90;;;;;;5042023;28;20055;-87
2022/10/13 08:53:10;;;;;;;21.80;10.65;;;12.10;99.90;;;;;;5024140;28;20026;-87
2022/10/13 08:55:46;;;;;;;15.90;10.43;;;12.10;99.90;;;;;;5037532;28;20498;-84
2022/10/13 08:58:22;;;;;;;17.75;9.85;;;12.00;99.90;;;;;;5030000;28;20072;-87
2022/10/13 09:00:58;;;;;;;16.30;10.77;;;12.10;99.90;;;;;;5030928;28;20104;-85
2022/10/13 09:03:28;;;;;;;22.90;10.45;;;13.20;99.90;;;;;;5036479;28;20038;-86
2022/10/13 09:06:14;;;;;;;18.40;11.07;;;12.10;99.90;;;;;;5037571;28;20030;-87
2022/10/13 09:08:51;;;;;;;16.38;10.30;;;12.10;99.90;;;;;;5038508;28;20040;-89
2022/10/13 09:11:17;;;;;;;16.20;10.55;;;12.20;99.90;;;;;;5039170;28;20395;-83
2022/10/13 09:13:46;;;;;;;19.15;10.38;;;12.30;99.90;;;;;;5036159;28;20220;-87
2022/10/13 09:16:12;;;;;;;17.38;10.38;;;;;;;;;;5041751;28;20005;-88
2022/10/13 09:18:38;;;;;;;21.10;11.38;;;12.30;99.90;;;;;;5050036;28;20021;-87
2022/10/13 09:21:18;;;;;;;22.77;12.07;;;12.40;99.90;;;;;;5050426;28;20026;-89
2022/10/13 09:23:44;;;;;;;21.13;11.15;;;;;;;;;;5055932;28;20033;-87
2022/10/13 09:26:18;;;;;;;20.73;11.45;;;12.40;99.90;;;;;;5035008;28;20041;-83
2022/10/13 09:28:44;;;;;;;17.25;10.52;;;;;;;;;;5046731;28;20053;-88
2022/10/13 09:31:29;;;;;;;22.92;11.88;;;12.40;99.90;;;;;;5052816;28;20021;-89
2022/10/13 09:37:02;;;;;;;17.50;11.07;;;12.50;99.90;;;;;;5020916;28;20054;-86
2022/10/13 12:06:53;;;;;;;18.67;10.32;;;15.60;99.90;;;;;;5043211;22;20465;-87
2022/10/13 12:09:20;;;;;;;14.07;10.70;;;15.60;99.90;;;;;;5051525;28;20061;-88
2022/10/13 12:11:54;;;;;;;13.25;10.50;;;15.60;99.90;;;;;;5037409;28;20068;-89
2022/10/13 12:14:24;;;;;;;17.30;10.57;;;15.70;99.90;;;;;;5037527;28;20026;-87
2022/10/13 12:16:54;;;;;;;19.20;11.48;;;15.70;99.90;;;;;;5033002;28;20085;-87
2022/10/13 12:19:22;;;;;;;16.75;11.00;;;15.60;99.90;;;;;;5033911;28;20025;-86
2022/10/13 12:21:50;;;;;;;15.65;10.95;;;15.70;99.90;;;;;;5047137;28;20527;-84
2022/10/13 12:24:16;;;;;;;15.38;10.38;;;;;;;;;;5034515;28;20129;-88
2022/10/13 12:26:42;;;;;;;16.65;10.27;;;;;;;;;;5037855;28;20033;-86
2022/10/13 12:29:13;;;;;;;18.50;10.27;;;15.80;99.90;;;;;;5031510;28;20112;-87
2022/10/13 12:31:39;;;;;;;19.40;11.15;;;;;;;;;;5036822;28;20081;-87
2022/10/13 12:34:22;;;;;;;17.40;10.60;;;15.90;99.90;;;;;;5037203;28;20068;-87
2022/10/13 12:37:04;;;;;;;14.95;9.93;;;16.20;99.90;;;;;;5055196;28;20029;-87
2022/10/13 12:39:32;;;;;;;26.25;10.82;;;15.90;99.90;;;;;;5046480;28;20017;-87
2022/10/13 12:42:01;;;;;;;17.50;11.07;;;15.90;99.90;;;;;;5053471;28;20022;-88
2022/10/13 12:44:30;;;;;;;18.40;10.32;;;17.30;99.90;;;;;;5043007;28;20085;-88
2022/10/13 12:46:58;;;;;;;20.65;11.57;;;15.70;99.90;;;;;;5056445;28;20039;-89
2022/10/13 12:49:29;;;;;;;19.73;10.82;;;15.70;99.90;;;;;;5051422;28;20040;-88
2022/10/13 12:52:13;;;;;;;20.85;11.90;;;15.60;99.90;;;;;;5047780;28;20127;-85
2022/10/13 12:54:47;;;;;;;15.30;11.00;;;15.60;99.90;;;;;;5033913;28;20116;-83
2022/10/13 12:57:37;;;;;;;19.20;11.52;;;15.60;99.90;;;;;;5034461;28;20467;-85
2022/10/13 13:00:19;;;;;;;18.55;11.50;;;15.60;99.90;;;;;;5031890;28;20398;-87
2022/10/13 13:03:05;;;;;;;21.48;12.05;;;15.60;99.90;;;;;;5031132;28;20087;-85
2022/10/13 13:05:35;;;;;;;21.10;12.93;;;15.50;99.90;;;;;;5033947;28;20037;-88
2022/10/13 13:08:18;;;;;;;22.08;15.02;;;15.40;99.90;;;;;;5035430;28;20030;-86
2022/10/13 13:10:58;;;;;;;23.20;14.63;;;15.30;99.90;;;;;;5033787;28;20042;-88
2022/10/13 13:13:24;;;;;;;25.95;15.85;;;15.30;99.90;;;;;;5040242;28;20029;-87
2022/10/13 13:15:50;;;;;;;23.10;15.77;;;;;;;;;;5037893;28;20029;-84
2022/10/13 13:18:25;;;;;;;24.17;16.55;;;15.20;99.90;;;;;;5040660;28;20024;-86
2022/10/13 13:20:52;;;;;;;30.88;17.02;;;15.90;99.90;;;;;;5037238;28;20641;-87
2022/10/13 13:23:18;;;;;;;26.83;17.00;;;;;;;;;;5040932;28;20033;-84
2022/10/13 13:25:58;;;;;;;27.15;16.20;;;15.30;99.90;;;;;;5034067;28;20491;-89
2022/10/13 13:28:29;;;;;;;21.30;14.75;;;15.30;99.90;;;;;;5049835;28;20484;-84
2022/10/13 13:30:55;;;;;;;30.92;16.67;;;;;;;;;;5032696;28;20507;-84
2022/10/13 13:33:21;;;;;;;25.80;16.50;;;15.30;99.90;;;;;;5030657;28;20076;-86
2022/10/13 13:35:47;;;;;;;30.98;16.67;;;;;;;;;;5034614;28;20033;-86
2022/10/13 13:38:13;;;;;;;27.23;15.95;;;;;;;;;;5030885;28;20029;-86
2022/10/13 13:40:40;;;;;;;29.20;16.35;;;;;;;;;;5031425;28;20033;-87
2022/10/13 13:43:07;;;;;;;25.73;16.33;;;15.30;99.90;;;;;;5048441;28;20045;-88
2022/10/13 13:45:33;;;;;;;24.33;16.52;;;;;;;;;;5043142;28;20104;-86
2022/10/13 13:47:59;;;;;;;28.45;17.65;;;15.30;99.90;;;;;;5033844;28;20112;-87
2022/10/13 13:50:30;;;;;;;33.08;16.80;;;15.30;99.90;;;;;;5033437;28;20052;-85
2022/10/13 13:52:56;;;;;;;28.65;18.13;;;15.30;99.90;;;;;;5040167;28;20041;-86
2022/10/13 13:55:22;;;;;;;27.70;17.67;;;;;;;;;;5037338;28;20034;-86
2022/10/13 13:57:48;;;;;;;24.17;17.20;;;;;;;;;;5028814;28;20029;-87
2022/10/13 14:00:15;;;;;;;27.83;16.45;;;15.20;99.90;;;;;;5009338;28;20033;-85
2022/10/13 14:02:45;;;;;;;28.42;17.25;;;15.30;99.90;;;;;;5034461;28;20403;-87
2022/10/13 14:08:40;;;;;;;32.22;18.38;;;16.00;99.90;;;;;;5221046;23;20092;-86
2022/10/13 14:11:06;;;;;;;26.20;17.08;;;15.30;99.90;;;;;;5046778;28;20025;-88
2022/10/13 14:13:33;;;;;;;33.13;18.42;;;16.40;99.90;;;;;;5036498;28;20029;-89
2022/10/13 14:16:00;;;;;;;27.40;17.83;;;15.40;99.90;;;;;;5023263;28;20029;-89
2022/10/13 14:18:26;;;;;;;29.50;18.40;;;;;;;;;;5044584;28;20036;-88
2022/10/13 14:20:52;;;;;;;25.80;17.50;;;;;;;;;;5035656;28;20048;-89
2022/10/13 14:23:21;;;;;;;26.80;17.65;;;;;;;;;;5041145;28;20042;-89
2022/10/13 14:25:49;;;;;;;30.38;17.42;;;;;;;;;;5041377;28;20041;-88
2022/10/13 14:28:21;;;;;;;27.92;17.00;;;15.40;99.90;;;;;;5043289;28;20038;-87
2022/10/13 14:30:50;;;;;;;25.92;16.27;;;;;;;;;;5041708;28;20549;-89
2022/10/13 14:33:18;;;;;;;23.88;16.42;;;;;;;;;;5040624;28;20060;-89
2022/10/13 14:36:09;;;;;;;25.98;16.10;;;15.40;99.90;;;;;;5050073;28;20040;-86
2022/10/13 14:38:34;;;;;;;;;;;15.40;99.90;;;;;;5032882;28;20128;-88
2022/10/13 14:41:02;;;;;;;22.98;15.13;;;15.40;99.90;;;;;;5036889;28;19936;-87
2022/10/13 14:43:28;;;;;;;25.77;14.98;;;;;;;;;;5034020;28;20029;-86
2022/10/13 14:46:12;;;;;;;22.23;15.02;;;15.30;99.90;;;;;;5036524;28;20097;-87
2022/10/13 14:48:38;;;;;;;26.65;16.58;;;;;;;;;;5039636;28;20120;-86
2022/10/13 14:51:09;;;;;;;25.45;15.02;;;15.20;99.90;;;;;;5038087;28;20037;-85
2022/10/13 14:53:38;;;;;;;25.17;15.48;;;15.20;99.90;;;;;;5056046;28;20037;-88
2022/10/13 15:01:43;;;;;;;22.15;14.50;;;;;;;;;;5035217;28;20053;-86
2022/10/13 15:04:09;;;;;;;27.08;15.23;;;;;;;;;;5041361;28;20037;-85
2022/10/13 15:06:46;;;;;;;25.85;15.65;;;15.20;99.90;;;;;;5039954;28;20022;-88
2022/10/13 15:09:15;;;;;;;25.05;14.93;;;15.20;99.90;;;;;;5041569;28;20030;-89
2022/10/13 15:11:45;;;;;;;21.65;14.27;;;15.10;99.90;;;;;;5044855;28;20495;-84
2022/10/13 15:14:13;;;;;;;25.60;14.77;;;;;;;;;;5047804;28;20029;-88
2022/10/13 15:16:39;;;;;;;22.10;14.85;;;;;;;;;;5047283;28;20014;-86
2022/10/13 15:19:05;;;;;;;23.67;15.00;;;;;;;;;;5037822;28;20010;-87
2022/10/13 15:21:31;;;;;;;23.50;14.23;;;;;;;;;;5046210;28;20025;-86
2022/10/13 15:24:07;;;;;;;21.00;14.13;;;15.10;99.90;;;;;;5043369;28;20025;-86
2022/10/13 15:26:35;;;;;;;23.80;13.60;;;;;;;;;;5061098;23;20029;-88
2022/10/13 15:29:04;;;;;;;24.35;13.52;;;15.10;99.90;;;;;;5029053;28;20033;-90
2022/10/13 15:31:30;;;;;;;21.50;13.68;;;;;;;;;;5016108;28;20054;-89
2022/10/13 15:34:12;;;;;;;25.58;14.27;;;15.00;99.90;;;;;;5019958;28;20056;-86
2022/10/13 15:36:40;;;;;;;22.35;13.48;;;;;;;;;;5011348;28;20043;-88
2022/10/13 15:39:17;;;;;;;23.60;16.63;;;15.10;99.90;;;;;;5085817;23;20065;-87
2022/10/13 15:41:48;;;;;;;20.95;13.43;;;;;;;;;;4998802;28;20034;-88
2022/10/13 15:44:15;;;;;;;19.73;12.65;;;;;;;;;;5001182;28;20053;-87
2022/10/13 15:46:41;;;;;;;23.88;13.85;;;;;;;;;;5006748;28;20065;-87
2022/10/13 15:49:08;;;;;;;20.30;12.57;;;;;;;;;;4992049;28;20023;-85
2022/10/13 15:51:37;;;;;;;21.08;12.70;;;;;;;;;;4998991;28;20037;-89
2022/10/13 15:54:03;;;;;;;18.25;12.57;;;;;;;;;;4995208;28;20037;-88
2022/10/13 15:56:32;;;;;;;21.27;13.45;;;15.00;99.90;;;;;;5000500;28;20027;-86
2022/10/13 15:59:01;;;;;;;20.67;12.82;;;;;;;;;;5010454;28;20084;-88
2022/10/13 16:01:29;;;;;;;23.77;14.05;;;15.00;99.90;;;;;;4987491;28;20051;-90
2022/10/13 16:04:01;;;;;;;21.45;13.95;;;15.00;99.90;;;;;;5011798;28;20030;-87
2022/10/13 16:06:27;;;;;;;23.50;14.07;;;;;;;;;;5009887;28;20034;-86
2022/10/13 16:08:53;;;;;;;26.13;14.52;;;15.00;99.90;;;;;;5006951;28;20035;-87
2022/10/13 16:11:20;;;;;;;25.23;14.93;;;14.90;99.90;;;;;;5004411;28;20041;-86
2022/10/13 16:13:51;;;;;;;24.15;15.52;;;14.90;99.90;;;;;;5000628;28;20495;-88
2022/10/13 16:16:21;;;;;;;23.60;14.75;;;14.90;99.90;;;;;;4997895;28;20022;-85
2022/10/13 16:18:55;;;;;;;24.08;14.88;;;;;;;;;;4999993;28;20078;-88
2022/10/13 16:21:26;;;;;;;22.75;14.32;;;14.80;99.90;;;;;;5001208;28;20053;-89
2022/10/13 16:23:53;;;;;;;24.63;14.82;;;;;;;;;;4985380;28;20045;-87
2022/10/13 16:26:19;;;;;;;23.50;13.63;;;;;;;;;;4998891;28;20062;-89
2022/10/13 16:28:45;;;;;;;25.30;15.10;;;;;;;;;;5005772;28;20030;-88